Time;durP1;ratioP1;P1;durP2;ratioP2;P2;SDS_P1;SDS_P2;PMS_P1;PMS_P2;Temp;Humidity;BMP_temperature;BMP_pressure;BME280_temperature;BME280_humidity;BME280_pressure;Samples;Min_cycle;Max_cycle;Signal;HPM_P1;HPM_P2
2023/09/26 00:02:18;;;;;;;14.30;9.38;;;;;;;13.42;100.00;102118.41;4898089;29;20388;-69
2023/09/26 00:04:43;;;;;;;16.98;10.50;;;;;;;13.38;100.00;102110.72;4898176;29;20032;-69
2023/09/26 00:07:08;;;;;;;17.20;10.38;;;;;;;13.40;100.00;102115.91;4898015;29;20029;-69
2023/09/26 00:09:35;;;;;;;16.30;10.40;;;;;;;13.37;100.00;102114.41;4897770;29;20032;-69
2023/09/26 00:12:02;;;;;;;17.02;11.45;;;;;;;13.32;100.00;102116.00;4897959;29;20033;-69
2023/09/26 00:14:27;;;;;;;16.45;9.75;;;;;;;13.28;100.00;102103.97;4898069;29;20045;-69
2023/09/26 00:16:53;;;;;;;15.48;10.10;;;;;;;13.25;100.00;102102.44;4897743;29;20096;-69
2023/09/26 00:19:18;;;;;;;16.85;10.30;;;;;;;13.19;100.00;102094.31;4897923;29;20035;-69
2023/09/26 00:21:43;;;;;;;21.08;11.02;;;;;;;13.19;100.00;102097.00;4897774;29;20033;-68
2023/09/26 00:24:09;;;;;;;16.15;10.00;;;;;;;13.22;100.00;102104.66;4880658;29;20033;-69
2023/09/26 00:26:35;;;;;;;16.73;9.90;;;;;;;13.20;100.00;102104.00;4897856;29;20037;-69
2023/09/26 00:29:00;;;;;;;16.23;10.65;;;;;;;13.19;100.00;102102.38;4897798;29;20040;-69
2023/09/26 00:31:25;;;;;;;15.82;9.95;;;;;;;13.15;100.00;102110.78;4880725;29;20055;-69
2023/09/26 00:33:51;;;;;;;13.52;9.45;;;;;;;13.16;100.00;102109.75;4897629;29;20037;-69
2023/09/26 00:36:17;;;;;;;16.10;10.27;;;;;;;13.11;100.00;102108.63;4896275;29;20484;-69
2023/09/26 00:38:42;;;;;;;15.85;10.07;;;;;;;13.04;100.00;102116.53;4897468;29;20048;-69
2023/09/26 00:41:07;;;;;;;16.90;10.48;;;;;;;12.99;100.00;102113.56;4897246;29;20035;-69
2023/09/26 00:43:35;;;;;;;16.15;10.13;;;;;;;12.91;100.00;102100.28;4897359;29;20043;-68
2023/09/26 00:46:01;;;;;;;19.13;10.77;;;;;;;12.96;100.00;102105.91;4897317;29;20044;-69
2023/09/26 00:48:27;;;;;;;15.80;9.23;;;;;;;12.97;100.00;102109.41;4897344;29;20107;-69
2023/09/26 00:50:54;;;;;;;16.10;10.20;;;;;;;12.90;100.00;102112.84;4897260;29;20116;-69
2023/09/26 00:53:21;;;;;;;17.92;11.30;;;;;;;12.94;100.00;102110.63;4897163;29;20189;-69
2023/09/26 00:55:49;;;;;;;18.15;10.48;;;;;;;12.92;100.00;102107.31;4897167;29;20044;-69
2023/09/26 00:58:17;;;;;;;16.10;10.43;;;;;;;12.86;100.00;102108.00;4897154;29;20120;-69
2023/09/26 01:00:44;;;;;;;14.25;9.52;;;;;;;12.85;100.00;102109.03;4897088;29;20028;-69
2023/09/26 01:03:09;;;;;;;14.32;9.73;;;;;;;12.79;100.00;102110.59;4896888;29;20035;-69
2023/09/26 01:05:37;;;;;;;15.20;8.88;;;;;;;12.81;100.00;102105.91;4897030;29;20040;-69
2023/09/26 01:08:04;;;;;;;16.42;9.52;;;;;;;12.76;100.00;102104.75;4897147;29;20396;-68
2023/09/26 01:10:30;;;;;;;18.63;10.50;;;;;;;12.69;100.00;102093.94;4896745;29;20036;-69
2023/09/26 01:12:56;;;;;;;16.90;9.98;;;;;;;12.67;100.00;102093.28;4896092;29;20084;-69
2023/09/26 01:15:31;;;;;;;14.45;9.15;;;;;;;12.63;100.00;102084.78;4896813;29;20119;-69
2023/09/26 01:17:57;;;;;;;18.73;9.88;;;;;;;12.64;100.00;102090.97;4896535;29;20063;-69
2023/09/26 01:20:24;;;;;;;15.75;9.20;;;;;;;12.66;100.00;102086.28;4896811;29;20032;-69
2023/09/26 01:22:50;;;;;;;16.08;9.85;;;;;;;12.68;100.00;102092.25;4896631;29;20047;-69
2023/09/26 01:25:16;;;;;;;13.88;8.77;;;;;;;12.63;100.00;102079.44;4896513;29;20476;-69
2023/09/26 01:27:42;;;;;;;14.60;8.68;;;;;;;12.59;100.00;102080.81;4896522;29;20068;-69
2023/09/26 01:30:08;;;;;;;20.20;10.18;;;;;;;12.58;100.00;102081.81;4896445;29;20037;-69
2023/09/26 01:32:34;;;;;;;16.13;10.02;;;;;;;12.60;100.00;102089.66;4896438;29;20124;-69
2023/09/26 01:34:59;;;;;;;15.15;9.40;;;;;;;12.58;100.00;102087.19;4896595;29;20124;-69
2023/09/26 01:37:25;;;;;;;15.75;9.55;;;;;;;12.60;100.00;102092.31;4896427;29;20036;-69
2023/09/26 01:39:50;;;;;;;16.00;9.50;;;;;;;12.61;100.00;102091.34;4896521;29;20052;-69
2023/09/26 01:42:15;;;;;;;16.52;9.40;;;;;;;12.60;100.00;102093.19;4879539;29;20051;-69
2023/09/26 01:44:41;;;;;;;14.35;9.77;;;;;;;12.62;100.00;102088.47;4896372;29;20040;-69
2023/09/26 01:47:06;;;;;;;18.85;10.43;;;;;;;12.63;100.00;102100.84;4896337;29;20037;-69
2023/09/26 01:49:34;;;;;;;18.15;10.52;;;;;;;12.59;100.00;102102.22;4896165;29;20033;-69
2023/09/26 01:51:59;;;;;;;18.15;9.43;;;;;;;12.56;100.00;102096.41;4896311;29;20540;-69
2023/09/26 01:54:24;;;;;;;15.48;9.60;;;;;;;12.49;100.00;102096.25;4896039;29;20040;-69
2023/09/26 01:56:50;;;;;;;15.98;9.20;;;;;;;12.46;100.00;102089.41;4895924;29;20047;-69
2023/09/26 01:59:15;;;;;;;15.80;9.55;;;;;;;12.45;100.00;102086.94;4896020;29;20496;-69
2023/09/26 02:01:40;;;;;;;17.92;11.40;;;;;;;12.43;100.00;102087.09;4896020;29;20021;-69
2023/09/26 02:04:06;;;;;;;15.70;10.75;;;;;;;12.41;100.00;102080.28;4896018;29;20115;-69
2023/09/26 02:06:31;;;;;;;16.38;9.35;;;;;;;12.41;100.00;102086.44;4895902;29;20060;-69
2023/09/26 02:08:56;;;;;;;17.88;10.38;;;;;;;12.40;100.00;102082.13;4896035;29;20079;-69
2023/09/26 02:11:22;;;;;;;18.27;9.55;;;;;;;12.42;100.00;102081.97;4895635;29;20075;-69
2023/09/26 02:13:47;;;;;;;16.13;9.73;;;;;;;12.42;100.00;102076.59;4895942;29;20075;-68
2023/09/26 02:16:12;;;;;;;14.52;10.30;;;;;;;12.41;100.00;102074.91;4895672;29;20067;-69
2023/09/26 02:18:38;;;;;;;14.60;9.02;;;;;;;12.42;100.00;102071.25;4895648;29;20081;-69
2023/09/26 02:21:03;;;;;;;15.02;9.48;;;;;;;12.35;100.00;102072.97;4895648;29;20028;-69
2023/09/26 02:23:29;;;;;;;18.77;10.82;;;;;;;12.30;100.00;102081.53;4895454;29;20086;-69
2023/09/26 02:25:54;;;;;;;16.73;10.07;;;;;;;12.25;100.00;102076.69;4895531;29;20051;-69
2023/09/26 02:28:20;;;;;;;14.82;9.30;;;;;;;12.21;100.00;102061.19;4895702;29;20074;-69
2023/09/26 02:30:46;;;;;;;15.38;8.93;;;;;;;12.23;100.00;102068.00;4895586;29;20036;-69
2023/09/26 02:33:11;;;;;;;14.80;9.50;;;;;;;12.22;100.00;102077.06;4895409;29;20040;-69
2023/09/26 02:35:37;;;;;;;16.30;10.23;;;;;;;12.25;100.00;102071.34;4895429;29;20081;-69
2023/09/26 02:38:02;;;;;;;15.65;9.48;;;;;;;12.17;100.00;102055.34;4895487;29;20441;-69
2023/09/26 02:40:28;;;;;;;16.10;10.30;;;;;;;12.24;100.00;102071.53;4895207;29;20240;-69
2023/09/26 02:42:54;;;;;;;22.48;11.63;;;;;;;12.23;100.00;102073.34;4895190;29;20036;-69
2023/09/26 02:45:19;;;;;;;15.00;9.65;;;;;;;12.19;100.00;102066.72;4895140;29;20137;-69
2023/09/26 02:47:45;;;;;;;15.15;10.13;;;;;;;12.19;100.00;102072.06;4895149;29;20150;-69
2023/09/26 02:50:11;;;;;;;13.93;9.65;;;;;;;12.20;100.00;102070.22;4894795;29;20043;-69
2023/09/26 02:52:39;;;;;;;15.75;9.25;;;;;;;12.15;100.00;102065.41;4895311;29;20032;-69
2023/09/26 02:55:07;;;;;;;17.88;10.00;;;;;;;12.09;100.00;102055.41;4895038;29;20036;-69
2023/09/26 02:57:34;;;;;;;13.50;9.25;;;;;;;12.11;100.00;102049.91;4895089;29;20028;-69
2023/09/26 02:59:59;;;;;;;16.23;10.70;;;;;;;12.03;100.00;102035.56;4894914;29;20381;-69
2023/09/26 03:02:25;;;;;;;17.13;10.48;;;;;;;12.09;100.00;102049.25;4894966;29;20065;-69
2023/09/26 03:04:50;;;;;;;15.05;9.85;;;;;;;12.09;100.00;102043.88;4894744;29;20389;-69
2023/09/26 03:07:16;;;;;;;15.43;9.68;;;;;;;12.07;100.00;102039.53;4894926;29;20036;-69
2023/09/26 03:09:42;;;;;;;18.15;10.65;;;;;;;12.08;100.00;102037.72;4877885;29;20056;-69
2023/09/26 03:12:07;;;;;;;14.95;9.70;;;;;;;12.02;100.00;102023.19;4894916;29;20040;-68
2023/09/26 03:14:33;;;;;;;17.08;10.23;;;;;;;12.05;100.00;102038.03;4894849;29;20032;-69
2023/09/26 03:16:59;;;;;;;17.55;10.35;;;;;;;12.06;100.00;102021.00;4894566;29;20145;-69
2023/09/26 03:19:24;;;;;;;16.48;10.25;;;;;;;12.03;100.00;102024.03;4877893;29;20225;-69
2023/09/26 03:21:50;;;;;;;17.95;10.90;;;;;;;12.04;100.00;102020.34;4894555;29;20115;-69
2023/09/26 03:24:16;;;;;;;17.70;10.15;;;;;;;12.05;100.00;102022.00;4894703;29;20032;-69
2023/09/26 03:26:42;;;;;;;16.85;9.45;;;;;;;12.01;100.00;102021.53;4894517;29;20045;-69
2023/09/26 03:29:07;;;;;;;16.95;10.18;;;;;;;12.00;100.00;102033.25;4894524;29;20087;-69
2023/09/26 03:31:34;;;;;;;16.10;9.57;;;;;;;11.98;100.00;102032.59;4894405;29;20071;-69
2023/09/26 03:33:59;;;;;;;15.82;9.95;;;;;;;11.92;100.00;102021.75;4894259;29;20044;-69
2023/09/26 03:36:25;;;;;;;16.83;11.40;;;;;;;11.93;100.00;102020.75;4894123;29;20093;-69
2023/09/26 03:38:50;;;;;;;15.13;10.07;;;;;;;11.90;100.00;102021.94;4895805;29;20036;-69
2023/09/26 03:41:15;;;;;;;16.75;10.25;;;;;;;11.89;100.00;102022.94;4897592;29;20028;-69
2023/09/26 03:43:41;;;;;;;15.25;9.43;;;;;;;11.90;100.00;102029.16;4894681;29;20116;-68
2023/09/26 03:46:07;;;;;;;15.23;9.25;;;;;;;11.85;100.00;102024.28;4894439;29;20052;-68
2023/09/26 03:48:34;;;;;;;16.88;9.90;;;;;;;11.86;100.00;102031.31;4894374;29;20096;-69
2023/09/26 03:51:10;;;;;;;14.13;8.85;;;;;;;11.86;100.00;102034.00;4894367;29;20040;-69
2023/09/26 03:53:36;;;;;;;16.52;11.30;;;;;;;11.87;100.00;102029.47;4877453;29;20404;-69
2023/09/26 03:56:01;;;;;;;17.35;10.25;;;;;;;11.85;100.00;102038.47;4894398;29;20036;-69
2023/09/26 03:58:27;;;;;;;16.50;10.05;;;;;;;11.79;100.00;102025.81;4895020;29;20044;-68
2023/09/26 04:00:52;;;;;;;13.80;9.45;;;;;;;11.72;100.00;102024.03;4897369;29;20039;-69
2023/09/26 04:03:19;;;;;;;18.48;10.68;;;;;;;11.69;100.00;102027.06;4897349;29;20111;-69
2023/09/26 04:05:47;;;;;;;18.13;10.30;;;;;;;11.67;100.00;102016.53;4897323;29;20446;-69
2023/09/26 04:08:14;;;;;;;16.73;9.52;;;;;;;11.69;100.00;102019.03;4897415;29;20052;-69
2023/09/26 04:10:39;;;;;;;15.45;9.80;;;;;;;11.71;100.00;102022.34;4877351;29;20484;-69
2023/09/26 04:13:05;;;;;;;16.30;9.90;;;;;;;11.66;100.00;102022.91;4894051;29;20059;-69
2023/09/26 04:15:31;;;;;;;17.52;10.82;;;;;;;11.64;100.00;102014.22;4893925;29;20121;-69
2023/09/26 04:17:57;;;;;;;15.15;9.15;;;;;;;11.59;100.00;102013.91;4894037;29;20517;-69
2023/09/26 04:20:23;;;;;;;16.63;9.82;;;;;;;11.56;100.00;102015.09;4894292;29;20032;-69
2023/09/26 04:22:48;;;;;;;14.50;9.05;;;;;;;11.56;100.00;102023.09;4893828;29;20047;-69
2023/09/26 04:25:14;;;;;;;15.70;9.45;;;;;;;11.54;100.00;102024.28;4893947;29;20056;-69
2023/09/26 04:27:40;;;;;;;13.68;9.60;;;;;;;11.53;100.00;102026.13;4893807;29;20041;-69
2023/09/26 04:30:07;;;;;;;15.25;9.48;;;;;;;11.47;100.00;102024.13;4894050;29;20032;-69
2023/09/26 04:32:32;;;;;;;16.75;9.35;;;;;;;11.39;100.00;102014.31;4893970;29;20590;-69
2023/09/26 04:34:58;;;;;;;17.80;9.38;;;;;;;11.43;100.00;102016.66;4894040;29;20112;-69
2023/09/26 04:37:23;;;;;;;17.95;10.60;;;;;;;11.40;100.00;102007.97;4893926;29;20473;-69
2023/09/26 04:39:48;;;;;;;18.95;9.77;;;;;;;11.41;100.00;102001.63;4893931;29;20059;-69
2023/09/26 04:42:14;;;;;;;16.77;10.25;;;;;;;11.39;100.00;102000.94;4894012;29;20111;-69
2023/09/26 04:44:39;;;;;;;16.83;9.73;;;;;;;11.33;100.00;101988.31;4893820;29;20040;-69
2023/09/26 04:47:05;;;;;;;17.70;10.20;;;;;;;11.33;100.00;101990.97;4895362;29;20595;-69
2023/09/26 04:49:32;;;;;;;19.63;10.93;;;;;;;11.31;100.00;101995.66;4897200;29;20040;-69
2023/09/26 04:51:57;;;;;;;15.07;9.23;;;;;;;11.34;100.00;101991.78;4897221;29;20056;-69
2023/09/26 04:54:22;;;;;;;18.48;10.27;;;;;;;11.36;100.00;101987.13;4897159;29;20501;-69
2023/09/26 04:56:48;;;;;;;15.38;9.35;;;;;;;11.29;100.00;101983.47;4880170;29;20964;-68
2023/09/26 04:59:13;;;;;;;18.48;10.18;;;;;;;11.36;100.00;101993.28;4897269;29;20036;-69
2023/09/26 05:01:38;;;;;;;17.92;9.13;;;;;;;11.37;100.00;101992.31;4896882;29;20033;-69
2023/09/26 05:04:04;;;;;;;16.02;10.30;;;;;;;11.40;100.00;101994.63;4897075;29;20077;-69
2023/09/26 05:06:29;;;;;;;18.63;9.73;;;;;;;11.43;100.00;101993.44;4896759;29;20048;-69
2023/09/26 05:08:55;;;;;;;20.00;10.05;;;;;;;11.44;100.00;101988.94;4897003;29;20118;-69
2023/09/26 05:11:20;;;;;;;17.45;10.10;;;;;;;11.43;100.00;101972.06;4896652;29;20047;-69
2023/09/26 05:13:46;;;;;;;18.45;10.68;;;;;;;11.47;100.00;101981.38;4880155;29;20085;-69
2023/09/26 05:16:13;;;;;;;17.42;10.57;;;;;;;11.48;100.00;101980.41;4896642;29;20694;-69
2023/09/26 05:18:39;;;;;;;16.27;10.98;;;;;;;11.49;100.00;101979.38;4896604;29;20071;-69
2023/09/26 05:21:08;;;;;;;15.68;9.27;;;;;;;11.54;100.00;101981.53;4896341;29;20444;-69
2023/09/26 05:23:33;;;;;;;18.70;11.38;;;;;;;11.55;100.00;101988.53;4895825;29;20428;-69
2023/09/26 05:26:07;;;;;;;18.48;10.75;;;;;;;11.59;100.00;101990.69;4895602;29;20043;-69
2023/09/26 05:28:33;;;;;;;17.23;10.25;;;;;;;11.59;100.00;101993.34;4895615;29;20429;-69
2023/09/26 05:30:58;;;;;;;18.67;11.27;;;;;;;11.60;100.00;101989.66;4897161;29;20037;-69
2023/09/26 05:33:24;;;;;;;16.35;10.30;;;;;;;11.61;100.00;101993.19;4899260;29;20032;-69
2023/09/26 05:35:49;;;;;;;16.48;10.27;;;;;;;11.64;100.00;101995.50;4899399;29;20059;-69
2023/09/26 05:38:14;;;;;;;19.63;10.27;;;;;;;11.66;100.00;101997.97;4896622;29;20037;-69
2023/09/26 05:40:40;;;;;;;17.35;10.52;;;;;;;11.63;100.00;101999.16;4895103;29;20416;-69
2023/09/26 05:43:05;;;;;;;16.58;9.85;;;;;;;11.67;100.00;101989.81;4896091;29;20536;-69
2023/09/26 05:45:30;;;;;;;15.52;10.05;;;;;;;11.69;100.00;101987.78;4896070;29;20036;-69
2023/09/26 05:47:56;;;;;;;17.83;11.13;;;;;;;11.74;100.00;101987.28;4896237;29;20055;-69
2023/09/26 05:50:21;;;;;;;16.88;11.75;;;;;;;11.78;100.00;101989.41;4895911;29;20043;-69
2023/09/26 05:52:46;;;;;;;19.48;10.73;;;;;;;11.84;100.00;101988.72;4896299;29;20104;-68
2023/09/26 05:55:12;;;;;;;16.00;10.68;;;;;;;11.86;100.00;101993.91;4895793;29;20036;-69
2023/09/26 05:57:37;;;;;;;18.75;10.75;;;;;;;11.92;100.00;102001.22;4878848;29;20040;-68
2023/09/26 06:00:05;;;;;;;21.02;11.95;;;;;;;11.98;100.00;102007.69;4895809;29;20127;-69
2023/09/26 06:02:30;;;;;;;16.60;9.55;;;;;;;12.01;100.00;102005.50;4895775;29;20433;-69
2023/09/26 06:04:55;;;;;;;18.73;11.52;;;;;;;12.03;100.00;102010.69;4895862;29;20035;-69
2023/09/26 06:07:21;;;;;;;16.92;10.60;;;;;;;12.04;100.00;102007.81;4895662;29;20088;-69
2023/09/26 06:09:48;;;;;;;17.13;10.48;;;;;;;12.05;100.00;102005.97;4895808;29;20082;-69
2023/09/26 06:12:13;;;;;;;17.30;10.40;;;;;;;12.05;100.00;102005.97;4878785;29;20043;-69
2023/09/26 06:14:39;;;;;;;15.48;9.95;;;;;;;12.13;100.00;102015.78;4895708;29;20037;-69
2023/09/26 06:17:04;;;;;;;17.98;10.48;;;;;;;12.15;100.00;102009.22;4895548;29;20569;-69
2023/09/26 06:19:29;;;;;;;20.42;10.88;;;;;;;12.16;100.00;102002.06;4895519;29;20040;-68
2023/09/26 06:21:55;;;;;;;20.27;10.32;;;;;;;12.18;100.00;102002.69;4895463;29;20396;-69
2023/09/26 06:24:20;;;;;;;18.00;10.00;;;;;;;12.27;100.00;102004.31;4895470;29;20044;-69
2023/09/26 06:26:45;;;;;;;16.25;9.68;;;;;;;12.33;100.00;102005.44;4895559;29;20048;-69
2023/09/26 06:29:11;;;;;;;16.38;9.68;;;;;;;12.34;100.00;101996.38;4895328;29;20041;-68
2023/09/26 06:31:40;;;;;;;21.92;11.50;;;;;;;12.43;100.00;102000.66;4895356;29;20040;-68
2023/09/26 06:34:05;;;;;;;17.48;10.68;;;;;;;12.49;100.00;102002.59;4895374;29;20503;-69
2023/09/26 06:36:31;;;;;;;20.15;8.73;;;;;;;12.54;100.00;101994.88;4878103;29;20032;-70
2023/09/26 06:38:57;;;;;;;16.60;9.52;;;;;;;12.61;100.00;101998.50;4895218;29;20143;-70
2023/09/26 06:41:23;;;;;;;16.92;9.80;;;;;;;12.63;100.00;101987.63;4895093;29;20052;-70
2023/09/26 06:43:48;;;;;;;16.17;9.93;;;;;;;12.69;100.00;101982.34;4895341;29;20133;-70
2023/09/26 06:46:14;;;;;;;16.83;10.38;;;;;;;12.77;100.00;101980.59;4893849;29;20036;-70
2023/09/26 06:48:41;;;;;;;18.58;10.50;;;;;;;12.84;100.00;101984.22;4878280;29;20395;-70
2023/09/26 06:51:08;;;;;;;18.35;10.52;;;;;;;12.89;100.00;101984.47;4895024;29;20044;-71
2023/09/26 06:53:34;;;;;;;18.20;10.68;;;;;;;12.98;100.00;101988.75;4877940;29;20024;-71
2023/09/26 06:56:04;;;;;;;15.00;9.52;;;;;;;13.02;100.00;101991.88;4894834;29;20071;-71
2023/09/26 06:58:29;;;;;;;16.38;9.73;;;;;;;13.07;100.00;101989.47;4878194;29;20040;-71
2023/09/26 07:00:55;;;;;;;15.10;10.02;;;;;;;13.09;100.00;101996.31;4894209;29;20428;-71
2023/09/26 07:03:20;;;;;;;14.82;9.30;;;;;;;13.14;100.00;102006.47;4877484;29;20139;-71
2023/09/26 07:05:47;;;;;;;16.25;10.05;;;;;;;13.15;100.00;102000.09;4894376;29;20485;-71
2023/09/26 07:08:12;;;;;;;14.85;8.73;;;;;;;13.24;100.00;101996.31;4878018;29;20044;-71
2023/09/26 07:10:38;;;;;;;14.95;9.98;;;;;;;13.24;100.00;101987.44;4893773;29;20044;-71
2023/09/26 07:13:04;;;;;;;14.48;9.55;;;;;;;13.34;100.00;101993.38;4894678;29;20033;-71
2023/09/26 07:15:31;;;;;;;15.07;9.65;;;;;;;13.41;100.00;101999.63;4877683;29;20047;-71
2023/09/26 07:17:58;;;;;;;15.73;10.18;;;;;;;13.46;100.00;102002.59;4893327;29;20113;-71
2023/09/26 07:20:24;;;;;;;21.40;11.77;;;;;;;13.52;100.00;102007.22;4894186;29;20056;-71
2023/09/26 07:22:50;;;;;;;15.52;10.35;;;;;;;13.61;100.00;102002.56;4894516;29;20177;-71
2023/09/26 07:25:15;;;;;;;15.23;9.52;;;;;;;13.68;100.00;102003.47;4894127;29;20043;-72
2023/09/26 07:27:40;;;;;;;17.88;10.38;;;;;;;13.77;100.00;101996.16;4894509;29;20476;-71
2023/09/26 07:30:08;;;;;;;17.10;9.95;;;;;;;13.87;100.00;101998.53;4894302;29;20032;-72
2023/09/26 07:32:34;;;;;;;16.30;10.40;;;;;;;13.93;100.00;101993.22;4888477;29;20115;-72
2023/09/26 07:34:59;;;;;;;17.63;9.82;;;;;;;14.02;100.00;101989.41;4870534;29;20072;-72
2023/09/26 07:37:24;;;;;;;17.95;10.35;;;;;;;14.16;100.00;101994.88;4869879;29;20036;-71
2023/09/26 07:39:51;;;;;;;16.25;9.70;;;;;;;14.27;100.00;101994.38;4887265;29;20452;-74
2023/09/26 07:42:18;;;;;;;15.88;9.57;;;;;;;14.39;100.00;101998.19;4888038;29;20096;-70
2023/09/26 07:44:44;;;;;;;17.08;10.13;;;;;;;14.53;100.00;101998.34;4886815;29;20032;-73
2023/09/26 07:47:09;;;;;;;16.40;9.93;;;;;;;14.64;100.00;101993.25;4886205;29;20032;-70
2023/09/26 07:49:34;;;;;;;13.85;9.20;;;;;;;14.77;100.00;101997.88;4887167;29;20035;-72
2023/09/26 07:52:00;;;;;;;16.33;9.32;;;;;;;14.87;100.00;101997.53;4886794;29;20047;-69
2023/09/26 07:54:25;;;;;;;14.77;9.32;;;;;;;14.92;100.00;101997.78;4870199;29;20104;-70
2023/09/26 07:56:50;;;;;;;14.80;9.25;;;;;;;15.00;100.00;102013.75;4894126;29;20037;-70
2023/09/26 07:59:16;;;;;;;18.77;9.02;;;;;;;15.03;100.00;102004.47;4894184;29;20032;-70
2023/09/26 08:01:42;;;;;;;17.23;9.48;;;;;;;15.16;100.00;101995.63;4892888;29;20507;-70
2023/09/26 08:04:07;;;;;;;17.70;9.75;;;;;;;15.22;100.00;101997.53;4892977;29;20096;-70
2023/09/26 08:06:33;;;;;;;15.88;8.85;;;;;;;15.24;100.00;101988.22;4893995;29;20033;-72
2023/09/26 08:08:59;;;;;;;15.05;9.32;;;;;;;15.32;100.00;101985.38;4893824;29;20448;-70
2023/09/26 08:11:27;;;;;;;19.70;8.43;;;;;;;15.37;100.00;101983.94;4893609;29;20085;-71
2023/09/26 08:13:53;;;;;;;13.07;8.88;;;;;;;15.52;100.00;101998.91;4893839;29;20536;-71
2023/09/26 08:16:19;;;;;;;14.63;8.32;;;;;;;15.62;100.00;102003.09;4894060;29;20045;-71
2023/09/26 08:18:44;;;;;;;13.68;8.60;;;;;;;15.70;100.00;102006.44;4893794;29;20057;-71
2023/09/26 08:21:09;;;;;;;14.55;8.93;;;;;;;15.74;100.00;102004.16;4895675;29;20298;-71
2023/09/26 08:23:35;;;;;;;15.75;9.68;;;;;;;15.76;100.00;101985.97;4880692;29;20036;-71
2023/09/26 08:26:02;;;;;;;16.05;9.75;;;;;;;15.80;100.00;101995.31;4896262;29;20425;-71
2023/09/26 08:28:31;;;;;;;16.83;9.15;;;;;;;15.83;100.00;101991.38;4897426;29;20106;-71
2023/09/26 08:31:14;;;;;;;15.15;9.77;;;;;;;15.85;100.00;101984.78;4897308;29;20429;-71
2023/09/26 08:33:39;;;;;;;15.93;9.15;;;;;;;15.93;100.00;101981.06;4897513;29;20042;-71
2023/09/26 08:36:20;;;;;;;14.27;8.75;;;;;;;15.99;100.00;101972.16;4897269;29;20036;-71
2023/09/26 08:38:47;;;;;;;15.23;9.07;;;;;;;15.97;100.00;101960.75;4895999;29;20044;-71
2023/09/26 08:41:13;;;;;;;20.67;9.10;;;;;;;16.17;100.00;101968.88;4897233;29;20103;-72
2023/09/26 08:43:38;;;;;;;15.60;9.35;;;;;;;16.26;100.00;101969.47;4880641;29;20113;-71
2023/09/26 08:46:05;;;;;;;17.02;10.57;;;;;;;16.35;100.00;101969.06;4897391;29;20716;-71
2023/09/26 08:48:32;;;;;;;16.83;11.57;;;;;;;16.46;100.00;101967.63;4897183;29;20033;-71
2023/09/26 08:50:57;;;;;;;14.38;9.23;;;;;;;16.51;100.00;101954.34;4897068;29;20473;-71
2023/09/26 08:53:23;;;;;;;18.50;9.55;;;;;;;16.76;100.00;101970.66;4896997;29;20111;-71
2023/09/26 08:55:51;;;;;;;15.35;8.93;;;;;;;16.96;100.00;101976.06;4895922;29;20044;-71
2023/09/26 08:58:19;;;;;;;13.68;9.68;;;;;;;17.09;100.00;101975.19;4879875;29;20028;-71
2023/09/26 09:00:45;;;;;;;15.05;9.60;;;;;;;17.31;100.00;101970.31;4896699;29;20045;-71
2023/09/26 09:03:10;;;;;;;15.02;8.80;;;;;;;17.47;100.00;101972.53;4897015;29;20651;-71
2023/09/26 09:05:35;;;;;;;21.08;9.63;;;;;;;17.60;100.00;101968.94;4896970;29;20428;-71
2023/09/26 09:08:01;;;;;;;13.43;8.73;;;;;;;17.62;100.00;101957.94;4897039;29;20085;-71
2023/09/26 09:10:26;;;;;;;13.10;8.88;;;;;;;17.79;100.00;101963.63;4896973;29;20033;-71
2023/09/26 09:13:02;;;;;;;13.13;8.63;;;;;;;17.90;100.00;101974.63;4895572;29;20484;-71
2023/09/26 09:15:28;;;;;;;15.68;10.70;;;;;;;17.96;100.00;101979.13;4879794;29;20088;-71
2023/09/26 09:17:54;;;;;;;15.43;9.43;;;;;;;18.01;100.00;101969.56;4896473;29;20066;-71
2023/09/26 09:20:33;;;;;;;15.32;8.52;;;;;;;18.09;100.00;101953.91;4879844;29;20043;-71
2023/09/26 09:23:06;;;;;;;14.70;8.45;;;;;;;18.31;100.00;101970.59;4896683;29;20369;-71
2023/09/26 09:25:34;;;;;;;13.40;8.40;;;;;;;18.47;100.00;101976.44;4896505;29;20045;-71
2023/09/26 09:28:00;;;;;;;12.43;7.88;;;;;;;18.58;100.00;101968.47;4896399;29;20029;-71
2023/09/26 09:30:26;;;;;;;15.65;9.32;;;;;;;18.68;100.00;101967.09;4896385;29;20481;-71
2023/09/26 09:32:51;;;;;;;16.08;9.38;;;;;;;18.74;100.00;101961.66;4895656;29;20027;-71
2023/09/26 09:35:17;;;;;;;12.13;8.10;;;;;;;18.72;100.00;101968.31;4896420;29;20032;-72
2023/09/26 09:37:47;;;;;;;13.73;8.07;;;;;;;18.76;100.00;101967.69;4896553;29;20037;-71
2023/09/26 09:40:17;;;;;;;14.52;9.18;;;;;;;18.92;100.00;101976.25;4896382;29;20060;-71
2023/09/26 09:42:42;;;;;;;11.80;7.53;;;;;;;18.96;97.02;101972.88;4895968;29;20033;-71
2023/09/26 09:45:09;;;;;;;12.52;7.45;;;;;;;19.02;96.09;101971.13;4896152;29;20500;-71
2023/09/26 09:47:37;;;;;;;11.55;7.15;;;;;;;19.07;95.50;101955.06;4896151;29;20103;-71
2023/09/26 09:50:05;;;;;;;12.40;8.32;;;;;;;19.21;95.85;101959.28;4896108;29;20032;-71
2023/09/26 09:52:33;;;;;;;12.75;7.47;;;;;;;19.22;94.82;101951.97;4878970;29;20028;-71
2023/09/26 09:55:08;;;;;;;13.55;7.03;;;;;;;19.30;94.60;101953.53;4895727;29;20075;-71
2023/09/26 09:57:41;;;;;;;13.63;7.43;;;;;;;19.38;96.02;101947.81;4879350;29;20036;-71
2023/09/26 10:00:08;;;;;;;11.18;7.20;;;;;;;19.52;97.65;101946.59;4896449;29;20638;-70
2023/09/26 10:02:34;;;;;;;9.82;6.28;;;;;;;19.59;94.16;101932.97;4895852;29;20032;-71
2023/09/26 10:05:05;;;;;;;16.35;6.75;;;;;;;19.68;94.99;101937.03;4895522;29;20036;-71
2023/09/26 10:07:31;;;;;;;11.95;6.88;;;;;;;19.72;91.24;101932.78;4895816;29;20036;-70
2023/09/26 10:09:57;;;;;;;11.02;6.32;;;;;;;19.73;92.90;101936.31;4895828;29;20404;-71
2023/09/26 10:12:24;;;;;;;11.73;6.63;;;;;;;19.73;92.75;101931.75;4895821;29;20032;-71
2023/09/26 10:14:50;;;;;;;12.32;5.95;;;;;;;19.79;92.95;101933.53;4894573;29;20056;-71
2023/09/26 10:17:17;;;;;;;11.07;6.35;;;;;;;19.80;89.92;101945.16;4895904;29;20090;-71
2023/09/26 10:19:42;;;;;;;10.27;6.40;;;;;;;19.76;91.39;101938.59;4895591;29;20136;-71
2023/09/26 10:22:19;;;;;;;9.45;5.75;;;;;;;19.79;91.57;101949.78;4895649;29;20115;-71
2023/09/26 10:24:52;;;;;;;7.65;5.00;;;;;;;19.82;93.50;101943.06;4895621;29;20047;-71
2023/09/26 10:27:38;;;;;;;10.20;5.30;;;;;;;19.86;94.80;101950.50;4895352;29;20079;-71
2023/09/26 10:30:06;;;;;;;10.82;5.75;;;;;;;19.83;92.73;101944.69;4895525;29;20116;-71
2023/09/26 10:32:37;;;;;;;9.70;5.90;;;;;;;19.83;91.33;101948.25;4893600;29;20035;-71
2023/09/26 10:35:23;;;;;;;11.73;5.70;;;;;;;19.91;95.56;101950.63;4894650;29;20035;-71
2023/09/26 10:37:53;;;;;;;12.10;5.72;;;;;;;19.89;92.20;101943.78;4894865;29;20036;-71
2023/09/26 10:40:18;;;;;;;8.52;5.68;;;;;;;19.91;89.57;101945.22;4891705;29;20095;-68
2023/09/26 10:42:46;;;;;;;10.63;5.85;;;;;;;19.92;90.89;101941.44;4887022;29;20048;-72
2023/09/26 10:45:12;;;;;;;9.43;5.13;;;;;;;19.86;95.29;101918.00;4886765;29;20120;-71
2023/09/26 10:47:39;;;;;;;7.28;5.25;;;;;;;19.96;90.48;101932.84;4887674;29;20453;-67
2023/09/26 10:50:12;;;;;;;11.10;5.22;;;;;;;20.00;93.00;101939.47;4886930;29;20035;-71
2023/09/26 10:52:41;;;;;;;13.82;5.53;;;;;;;19.99;91.65;101933.22;4887518;29;20087;-71
2023/09/26 10:55:07;;;;;;;10.98;5.40;;;;;;;19.99;91.76;101922.38;4887443;29;20039;-70
2023/09/26 10:57:33;;;;;;;11.73;5.70;;;;;;;20.00;94.06;101921.31;4887537;29;20051;-71
2023/09/26 10:59:58;;;;;;;12.60;6.10;;;;;;;20.04;87.94;101924.38;4887740;29;20033;-68
2023/09/26 11:02:24;;;;;;;8.25;5.40;;;;;;;20.07;89.84;101935.59;4892934;29;20081;-69
2023/09/26 11:04:50;;;;;;;10.38;5.95;;;;;;;20.06;91.74;101933.09;4893118;29;20124;-70